createdAt,value
2023-04-12T00:00:44.801Z,11.10
2023-04-12T00:03:11.638Z,11.10
2023-04-12T00:05:38.496Z,11.00
2023-04-12T00:08:06.194Z,11.00
2023-04-12T00:10:32.777Z,11.20
2023-04-12T00:12:59.302Z,11.30
2023-04-12T00:15:25.894Z,11.20
2023-04-12T00:17:52.511Z,11.30
2023-04-12T00:20:19.527Z,11.30
2023-04-12T00:22:46.200Z,11.40
2023-04-12T00:25:12.828Z,11.30
2023-04-12T00:27:39.564Z,11.30
2023-04-12T00:30:08.250Z,11.50
2023-04-12T00:32:34.851Z,11.70
2023-04-12T00:35:01.670Z,11.70
2023-04-12T00:37:28.361Z,11.50
2023-04-12T00:39:54.938Z,11.50
2023-04-12T00:42:21.540Z,11.60
2023-04-12T00:44:48.356Z,12.10
2023-04-12T00:47:14.947Z,11.70
2023-04-12T00:49:41.600Z,11.60
2023-04-12T00:52:10.076Z,11.70
2023-04-12T00:54:36.944Z,11.70
2023-04-12T00:57:03.741Z,11.60
2023-04-12T00:59:30.338Z,11.50
2023-04-12T01:01:57.448Z,11.50
2023-04-12T01:04:26.386Z,11.30
2023-04-12T01:06:55.845Z,11.10
2023-04-12T01:09:36.244Z,11.00
2023-04-12T01:12:21.853Z,10.80
2023-04-12T01:15:02.363Z,10.80
2023-04-12T01:17:30.894Z,10.90
2023-04-12T01:20:13.693Z,10.60
2023-04-12T01:22:49.008Z,10.60
2023-04-12T01:25:29.291Z,10.50
2023-04-12T01:27:57.280Z,10.40
2023-04-12T01:30:26.622Z,10.30
2023-04-12T01:32:54.849Z,10.30
2023-04-12T01:35:22.483Z,10.40
2023-04-12T01:37:49.446Z,10.50
2023-04-12T01:40:17.763Z,10.50
2023-04-12T01:42:44.385Z,10.40
2023-04-12T01:45:11.234Z,10.20
2023-04-12T01:47:38.337Z,10.30
2023-04-12T01:50:04.919Z,10.20
2023-04-12T01:52:32.287Z,10.10
2023-04-12T01:55:01.488Z,10.10
2023-04-12T01:57:28.980Z,10.30
2023-04-12T01:59:56.819Z,10.30
2023-04-12T02:02:24.125Z,10.20
2023-04-12T02:04:51.233Z,10.10
2023-04-12T02:07:18.864Z,10.00
2023-04-12T02:09:45.642Z,10.00
2023-04-12T02:12:13.195Z,10.00
2023-04-12T02:14:39.999Z,10.00
2023-04-12T02:17:07.991Z,10.10
2023-04-12T02:19:34.596Z,10.10
2023-04-12T02:22:02.247Z,9.80
2023-04-12T02:24:28.878Z,9.90
2023-04-12T02:26:56.417Z,9.80
2023-04-12T02:29:23.853Z,9.80
2023-04-12T02:31:51.167Z,9.90
2023-04-12T02:34:18.211Z,10.00
2023-04-12T02:36:48.805Z,9.80
2023-04-12T02:39:18.589Z,9.80
2023-04-12T02:41:45.929Z,9.70
2023-04-12T02:44:12.584Z,9.80
2023-04-12T02:46:39.205Z,9.80
2023-04-12T02:49:05.793Z,9.80
2023-04-12T02:51:32.442Z,9.80
2023-04-12T02:53:59.153Z,9.80
2023-04-12T02:56:25.829Z,9.80
2023-04-12T02:58:52.509Z,9.80
2023-04-12T03:01:19.557Z,9.80
2023-04-12T03:03:46.905Z,9.80
2023-04-12T03:06:13.589Z,9.80
2023-04-12T03:08:40.109Z,9.70
2023-04-12T03:11:06.839Z,9.80
2023-04-12T03:13:33.438Z,9.90
2023-04-12T03:16:00.239Z,9.70
2023-04-12T03:18:26.970Z,9.70
2023-04-12T03:20:53.599Z,9.70
2023-04-12T03:23:20.551Z,9.80
2023-04-12T03:25:47.249Z,9.70
2023-04-12T03:28:13.930Z,9.70
2023-04-12T03:30:40.854Z,9.80
2023-04-12T03:33:07.852Z,9.80
2023-04-12T03:35:34.561Z,9.80
2023-04-12T03:38:01.130Z,9.60
2023-04-12T03:40:27.703Z,9.70
2023-04-12T03:42:54.303Z,9.80
2023-04-12T03:45:20.833Z,9.80
2023-04-12T03:47:47.619Z,9.90
2023-04-12T03:50:14.259Z,9.80
2023-04-12T03:52:40.915Z,9.70
2023-04-12T03:55:08.117Z,9.70
2023-04-12T03:57:35.009Z,9.70
2023-04-12T04:00:02.386Z,9.70
2023-04-12T04:02:29.094Z,9.70
2023-04-12T04:04:55.809Z,9.50
2023-04-12T04:07:22.598Z,9.40
2023-04-12T04:09:50.087Z,9.60
2023-04-12T04:12:16.888Z,9.70
2023-04-12T04:14:43.995Z,9.70
2023-04-12T04:17:10.959Z,9.70
2023-04-12T04:19:37.523Z,9.40
2023-04-12T04:22:04.698Z,9.50
2023-04-12T04:26:58.790Z,9.50
2023-04-12T04:29:25.948Z,9.50
2023-04-12T04:31:53.855Z,9.30
2023-04-12T04:34:22.098Z,9.40
2023-04-12T04:36:48.788Z,9.50
2023-04-12T04:39:15.733Z,9.50
2023-04-12T04:41:42.335Z,9.70
2023-04-12T04:44:13.290Z,9.60
2023-04-12T04:46:39.890Z,9.50
2023-04-12T04:49:06.521Z,9.40
2023-04-12T04:51:33.068Z,9.40
2023-04-12T04:54:00.218Z,9.40
2023-04-12T04:56:26.900Z,9.50
2023-04-12T04:58:56.161Z,9.40
2023-04-12T05:01:28.637Z,9.30
2023-04-12T05:03:55.789Z,9.20
2023-04-12T05:06:23.007Z,9.20
2023-04-12T05:08:49.655Z,9.10
2023-04-12T05:11:16.288Z,9.20
2023-04-12T05:13:42.998Z,9.10
2023-04-12T05:16:09.846Z,9.10
2023-04-12T05:18:36.442Z,9.00
2023-04-12T05:21:03.976Z,9.00
2023-04-12T05:23:32.936Z,8.90
2023-04-12T05:25:59.514Z,9.00
2023-04-12T05:28:26.048Z,9.00
2023-04-12T05:30:52.735Z,9.00
2023-04-12T05:33:19.312Z,9.00
2023-04-12T05:35:46.059Z,9.00
2023-04-12T05:38:12.594Z,9.10
2023-04-12T05:40:39.170Z,9.20
2023-04-12T05:43:05.703Z,9.10
2023-04-12T05:45:32.285Z,9.10
2023-04-12T05:47:58.854Z,9.10
2023-04-12T05:50:25.395Z,9.10
2023-04-12T05:52:51.955Z,9.00
2023-04-12T05:55:18.635Z,9.20
2023-04-12T05:57:46.374Z,9.20
2023-04-12T06:00:14.067Z,9.30
2023-04-12T06:02:40.868Z,9.30
2023-04-12T06:05:07.941Z,9.30
2023-04-12T06:07:34.675Z,9.20
2023-04-12T06:10:01.416Z,9.30
2023-04-12T06:12:28.132Z,9.30
2023-04-12T06:14:55.815Z,9.40
2023-04-12T06:17:22.680Z,9.30
2023-04-12T06:19:49.245Z,9.30
2023-04-12T06:22:15.993Z,9.20
2023-04-12T06:24:42.568Z,9.00
2023-04-12T06:27:09.243Z,9.10
2023-04-12T06:29:36.056Z,9.00
2023-04-12T06:32:02.590Z,9.20
2023-04-12T06:34:29.322Z,9.20
2023-04-12T06:36:57.387Z,9.20
2023-04-12T06:39:23.967Z,9.00
2023-04-12T06:41:50.772Z,9.20
2023-04-12T06:44:17.325Z,9.20
2023-04-12T06:46:43.929Z,9.20
2023-04-12T06:49:10.657Z,9.20
2023-04-12T06:51:37.240Z,9.20
2023-04-12T06:54:03.904Z,9.10
2023-04-12T06:56:30.554Z,9.10
2023-04-12T06:58:57.383Z,9.20
2023-04-12T07:01:24.245Z,9.30
2023-04-12T07:03:50.959Z,9.30
2023-04-12T07:06:24.213Z,9.20
2023-04-12T07:08:52.425Z,9.30
2023-04-12T07:11:21.801Z,9.40
2023-04-12T07:13:49.074Z,9.30
2023-04-12T07:16:15.953Z,9.20
2023-04-12T07:18:42.728Z,9.10
2023-04-12T07:21:09.341Z,9.10
2023-04-12T07:23:35.854Z,9.30
2023-04-12T07:26:02.531Z,9.50
2023-04-12T07:28:29.125Z,9.60
2023-04-12T07:30:55.855Z,9.70
2023-04-12T07:33:22.542Z,9.90
2023-04-12T07:35:49.312Z,9.80
2023-04-12T07:38:17.000Z,9.90
2023-04-12T07:40:43.837Z,9.80
2023-04-12T07:43:10.435Z,9.90
2023-04-12T07:45:37.709Z,9.90
2023-04-12T07:48:04.419Z,9.90
2023-04-12T07:50:31.185Z,10.10
2023-04-12T07:53:16.717Z,10.20
2023-04-12T07:55:43.281Z,10.40
2023-04-12T07:58:09.955Z,10.70
2023-04-12T08:00:36.599Z,10.50
2023-04-12T08:03:03.330Z,10.40
2023-04-12T08:05:30.065Z,10.20
2023-04-12T08:07:56.722Z,10.00
2023-04-12T08:10:23.268Z,10.00
2023-04-12T08:12:49.894Z,10.00
2023-04-12T08:15:16.463Z,10.30
2023-04-12T08:17:44.008Z,10.40
2023-04-12T08:20:11.272Z,10.50
2023-04-12T08:22:37.855Z,10.50
2023-04-12T08:25:04.565Z,10.50
2023-04-12T08:27:31.488Z,10.70
2023-04-12T08:29:58.086Z,10.90
2023-04-12T08:32:24.828Z,11.00
2023-04-12T08:34:51.481Z,11.20
2023-04-12T08:37:18.040Z,11.10
2023-04-12T08:39:44.595Z,11.30
2023-04-12T08:42:11.262Z,11.30
2023-04-12T08:44:38.903Z,11.30
2023-04-12T08:47:06.636Z,11.50
2023-04-12T08:49:34.069Z,11.60
2023-04-12T08:52:02.835Z,11.30
2023-04-12T08:54:29.446Z,11.30
2023-04-12T08:56:58.011Z,11.40
2023-04-12T08:59:27.077Z,11.20
2023-04-12T09:01:57.515Z,11.30
2023-04-12T09:04:25.017Z,11.30
2023-04-12T09:06:51.817Z,11.30
2023-04-12T09:09:18.482Z,11.50
2023-04-12T09:11:45.308Z,11.70
2023-04-12T09:14:22.978Z,12.00
2023-04-12T09:16:49.743Z,12.20
2023-04-12T09:19:16.472Z,12.60
2023-04-12T09:21:53.816Z,12.90
2023-04-12T09:24:24.024Z,13.40
2023-04-12T09:27:04.093Z,13.80
2023-04-12T09:29:31.174Z,13.80
2023-04-12T09:31:57.832Z,14.00
2023-04-12T09:34:25.960Z,13.80
2023-04-12T09:36:54.389Z,14.10
2023-04-12T09:39:30.300Z,14.50
2023-04-12T09:42:12.355Z,14.80
2023-04-12T09:44:44.997Z,15.20
2023-04-12T09:47:11.625Z,15.40
2023-04-12T09:49:42.453Z,15.80
2023-04-12T09:52:10.892Z,15.60
2023-04-12T09:54:41.001Z,15.20
2023-04-12T09:57:08.805Z,15.30
2023-04-12T09:59:36.982Z,15.40
2023-04-12T10:02:07.110Z,15.80
2023-04-12T10:04:34.370Z,16.10
2023-04-12T10:07:01.750Z,16.10
2023-04-12T10:09:28.474Z,15.80
2023-04-12T11:00:58.237Z,19.90
2023-04-12T11:03:27.714Z,20.10
2023-04-12T11:06:02.646Z,20.00
2023-04-12T11:08:38.765Z,20.00
2023-04-12T11:11:17.821Z,20.50
2023-04-12T11:13:44.433Z,21.30
2023-04-12T11:16:12.873Z,22.10
2023-04-12T11:18:39.713Z,22.20
2023-04-12T11:21:06.524Z,22.90
2023-04-12T11:23:33.123Z,23.00
2023-04-12T11:25:59.764Z,23.20
2023-04-12T11:28:29.759Z,23.50
2023-04-12T11:30:57.683Z,24.00
2023-04-12T11:33:33.888Z,23.30
2023-04-12T11:36:03.097Z,23.40
2023-04-12T11:38:29.739Z,23.00
2023-04-12T11:40:56.377Z,23.00
2023-04-12T11:43:23.081Z,22.90
2023-04-12T11:45:49.649Z,23.30
2023-04-12T11:48:16.307Z,23.70
2023-04-12T11:50:42.926Z,23.50
2023-04-12T11:53:11.216Z,23.90
2023-04-12T11:58:04.788Z,24.50
2023-04-12T12:00:31.506Z,24.40
2023-04-12T12:05:36.588Z,22.50
2023-04-12T12:08:07.390Z,22.40
2023-04-12T12:13:09.527Z,21.90
2023-04-12T12:15:36.412Z,21.50
2023-04-12T12:18:03.475Z,20.30
2023-04-12T12:20:30.270Z,19.80
2023-04-12T12:22:57.063Z,19.90
2023-04-12T12:25:23.708Z,19.70
2023-04-12T12:27:56.623Z,19.40
2023-04-12T12:30:23.399Z,19.80
2023-04-12T12:32:50.294Z,20.30
2023-04-12T12:35:17.061Z,20.60
2023-04-12T12:37:51.056Z,20.70
2023-04-12T12:40:18.603Z,20.90
2023-04-12T12:42:49.934Z,21.20
2023-04-12T12:45:17.329Z,21.80
2023-04-12T12:47:47.230Z,22.00
2023-04-12T12:50:14.275Z,21.40
2023-04-12T12:52:40.784Z,21.30
2023-04-12T12:55:07.624Z,20.80
2023-04-12T12:57:35.699Z,20.30
2023-04-12T13:00:02.418Z,19.50
2023-04-12T13:02:29.126Z,19.00
2023-04-12T13:04:55.969Z,18.60
2023-04-12T13:07:22.860Z,18.30
2023-04-12T13:09:49.794Z,17.80
2023-04-12T13:12:16.446Z,17.10
2023-04-12T13:14:43.001Z,16.80
2023-04-12T13:17:09.562Z,16.50
2023-04-12T13:19:36.271Z,16.30
2023-04-12T13:22:03.017Z,16.30
2023-04-12T13:24:30.246Z,16.40
2023-04-12T13:26:58.086Z,16.60
2023-04-12T13:29:25.184Z,16.60
2023-04-12T13:31:52.026Z,16.50
2023-04-12T13:34:18.627Z,15.80
2023-04-12T13:36:45.254Z,15.30
2023-04-12T13:39:13.556Z,14.70
2023-04-12T13:41:40.245Z,14.60
2023-04-12T13:44:06.816Z,14.50
2023-04-12T13:46:33.420Z,14.70
2023-04-12T13:49:00.312Z,15.30
2023-04-12T13:51:28.293Z,15.80
2023-04-12T13:53:55.452Z,16.30
2023-04-12T13:56:22.062Z,16.30
2023-04-12T13:58:48.625Z,15.90
2023-04-12T14:01:15.206Z,15.40
2023-04-12T14:03:41.789Z,15.20
2023-04-12T14:06:09.477Z,14.90
2023-04-12T14:08:36.111Z,14.80
2023-04-12T14:11:03.218Z,14.60
2023-04-12T14:13:29.859Z,14.70
2023-04-12T14:15:57.406Z,14.90
2023-04-12T14:18:23.979Z,15.30
2023-04-12T14:20:52.624Z,16.10
2023-04-12T14:23:19.237Z,16.60
2023-04-12T14:25:45.796Z,16.90
2023-04-12T14:28:16.636Z,17.10
2023-04-12T14:30:43.744Z,17.10
2023-04-12T14:33:10.536Z,17.10
2023-04-12T14:35:37.488Z,17.10
2023-04-12T14:38:04.770Z,17.10
2023-04-12T14:40:31.601Z,16.90
2023-04-12T14:42:58.241Z,16.90
2023-04-12T14:45:24.898Z,17.00
2023-04-12T14:47:51.462Z,17.30
2023-04-12T14:50:18.112Z,17.30
2023-04-12T14:52:44.628Z,17.40
2023-04-12T14:55:11.251Z,17.60
2023-04-12T14:57:38.732Z,17.50
2023-04-12T15:00:12.885Z,17.40
2023-04-12T15:02:40.037Z,17.30
2023-04-12T15:05:08.204Z,17.20
2023-04-12T15:07:34.896Z,17.40
2023-04-12T15:10:01.480Z,17.40
2023-04-12T15:12:28.419Z,17.50
2023-04-12T15:14:57.552Z,17.20
2023-04-12T15:17:24.400Z,17.20
2023-04-12T15:19:51.199Z,17.10
2023-04-12T15:22:17.854Z,16.80
2023-04-12T15:24:44.361Z,16.40
2023-04-12T15:27:10.972Z,16.40
2023-04-12T15:29:37.562Z,16.40
2023-04-12T15:32:04.195Z,16.50
2023-04-12T15:34:33.743Z,16.60
2023-04-12T15:37:00.360Z,16.60
2023-04-12T15:39:26.943Z,16.80
2023-04-12T15:41:53.493Z,16.70
2023-04-12T15:44:20.128Z,16.60
2023-04-12T15:46:59.247Z,16.40
2023-04-12T15:49:29.972Z,16.40
2023-04-12T15:51:59.216Z,16.40
2023-04-12T15:54:25.751Z,16.40
2023-04-12T15:56:52.830Z,16.30
2023-04-12T15:59:19.638Z,16.30
2023-04-12T16:01:48.044Z,16.40
2023-04-12T16:04:17.151Z,16.30
2023-04-12T16:06:44.573Z,16.00
2023-04-12T16:09:14.507Z,16.00
2023-04-12T16:11:41.231Z,15.90
2023-04-12T16:14:09.002Z,15.90
2023-04-12T16:16:36.554Z,15.90
2023-04-12T16:19:03.297Z,15.80
2023-04-12T16:21:30.307Z,16.00
2023-04-12T16:23:57.151Z,16.10
2023-04-12T16:26:23.780Z,16.10
2023-04-12T16:28:52.443Z,16.00
2023-04-12T16:31:20.820Z,16.10
2023-04-12T16:33:51.163Z,15.90
2023-04-12T16:36:18.018Z,15.80
2023-04-12T16:38:47.839Z,15.70
2023-04-12T16:41:14.468Z,15.70
2023-04-12T16:43:42.681Z,15.50
2023-04-12T16:46:11.439Z,15.40
2023-04-12T16:48:41.531Z,15.20
2023-04-12T16:51:08.193Z,15.00
2023-04-12T16:53:35.881Z,14.90
2023-04-12T16:56:02.441Z,14.70
2023-04-12T16:58:29.162Z,14.50
2023-04-12T17:00:55.997Z,14.20
2023-04-12T17:03:24.050Z,13.80
2023-04-12T17:05:50.964Z,13.80
2023-04-12T17:08:17.586Z,13.90
2023-04-12T17:10:44.244Z,13.60
2023-04-12T17:13:10.903Z,13.50
2023-04-12T17:15:37.461Z,13.40
2023-04-12T17:18:05.275Z,13.50
2023-04-12T17:20:32.586Z,13.50
2023-04-12T17:22:59.424Z,13.30
2023-04-12T17:25:29.219Z,13.30
2023-04-12T17:27:56.188Z,13.10
2023-04-12T17:30:23.785Z,13.00
2023-04-12T17:32:51.752Z,12.80
2023-04-12T17:35:18.870Z,12.80
2023-04-12T17:37:46.005Z,12.70
2023-04-12T17:40:12.984Z,12.60
2023-04-12T17:42:40.472Z,12.60
2023-04-12T17:45:07.703Z,12.50
2023-04-12T17:47:34.757Z,12.50
2023-04-12T17:50:01.637Z,12.50
2023-04-12T17:52:28.258Z,12.60
2023-04-12T17:54:54.919Z,12.60
2023-04-12T17:57:22.268Z,12.60
2023-04-12T17:59:48.815Z,12.50
2023-04-12T18:02:16.958Z,12.40
2023-04-12T18:04:43.818Z,12.40
2023-04-12T18:07:11.077Z,12.40
2023-04-12T18:09:38.388Z,12.10
2023-04-12T18:12:05.319Z,12.00
2023-04-12T18:14:32.004Z,11.90
2023-04-12T18:16:58.637Z,11.70
2023-04-12T18:19:25.239Z,11.60
2023-04-12T18:21:51.969Z,11.50
2023-04-12T18:24:18.618Z,11.40
2023-04-12T18:26:45.946Z,11.40
2023-04-12T18:29:14.446Z,11.10
2023-04-12T18:31:41.192Z,10.90
2023-04-12T18:34:11.151Z,10.90
2023-04-12T18:36:38.163Z,10.80
2023-04-12T18:39:05.631Z,10.40
2023-04-12T18:41:32.393Z,10.40
2023-04-12T18:43:59.181Z,10.30
2023-04-12T18:46:31.992Z,10.20
2023-04-12T18:48:58.931Z,10.00
2023-04-12T18:51:25.619Z,10.00
2023-04-12T18:53:52.202Z,9.80
2023-04-12T18:56:23.260Z,9.70
2023-04-12T18:58:55.687Z,9.70
2023-04-12T19:01:23.326Z,9.70
2023-04-12T19:03:50.104Z,9.60
2023-04-12T19:06:16.996Z,9.50
2023-04-12T19:08:43.929Z,9.40
2023-04-12T19:11:10.652Z,9.30
2023-04-12T19:13:38.228Z,9.40
2023-04-12T19:16:07.628Z,9.40
2023-04-12T19:18:34.898Z,9.30
2023-04-12T19:21:02.567Z,9.20
2023-04-12T19:23:29.556Z,9.00
2023-04-12T19:25:58.490Z,8.90
2023-04-12T19:28:25.793Z,8.90
2023-04-12T19:30:53.167Z,8.80
2023-04-12T19:33:19.842Z,8.80
2023-04-12T19:35:46.393Z,8.70
2023-04-12T19:38:13.405Z,8.60
2023-04-12T19:40:39.975Z,8.60
2023-04-12T19:43:08.236Z,8.50
2023-04-12T19:45:35.595Z,8.50
2023-04-12T19:48:02.364Z,8.60
2023-04-12T19:50:30.894Z,8.60
2023-04-12T19:52:57.542Z,8.30
2023-04-12T19:55:25.129Z,8.30
2023-04-12T19:57:51.769Z,8.40
2023-04-12T20:00:23.044Z,8.40
2023-04-12T20:02:50.497Z,8.40
2023-04-12T20:05:17.877Z,8.30
2023-04-12T20:07:44.533Z,8.20
2023-04-12T20:10:11.867Z,8.10
2023-04-12T20:12:39.004Z,8.10
2023-04-12T20:15:08.748Z,8.10
2023-04-12T20:17:35.896Z,8.10
2023-04-12T20:20:04.614Z,8.10
2023-04-12T20:22:31.216Z,7.90
2023-04-12T20:24:58.531Z,7.90
2023-04-12T20:27:25.013Z,7.80
2023-04-12T20:29:51.840Z,7.70
2023-04-12T20:32:18.491Z,7.70
2023-04-12T20:34:49.803Z,7.70
2023-04-12T20:37:16.874Z,7.60
2023-04-12T20:39:44.068Z,7.60
2023-04-12T20:42:10.772Z,7.60
2023-04-12T20:44:37.542Z,7.50
2023-04-12T20:47:04.190Z,7.60
2023-04-12T20:49:31.197Z,7.50
2023-04-12T20:51:58.757Z,7.20
2023-04-12T20:54:26.291Z,7.30
2023-04-12T20:56:54.152Z,7.40
2023-04-12T20:59:23.879Z,7.40
2023-04-12T21:01:50.913Z,7.30
2023-04-12T21:04:17.760Z,7.30
2023-04-12T21:06:45.042Z,7.30
2023-04-12T21:09:11.586Z,7.40
2023-04-12T21:11:38.319Z,7.10
2023-04-12T21:14:04.899Z,7.10
2023-04-12T21:16:31.526Z,7.00
2023-04-12T21:18:59.127Z,7.10
2023-04-12T21:21:27.361Z,7.20
2023-04-12T21:23:53.974Z,7.10
2023-04-12T21:26:21.624Z,7.10
2023-04-12T21:28:48.603Z,7.00
2023-04-12T21:31:15.967Z,6.90
2023-04-12T21:33:42.698Z,6.80
2023-04-12T21:36:10.142Z,6.90
2023-04-12T21:38:36.781Z,6.90
2023-04-12T21:41:07.142Z,6.80
2023-04-12T21:43:33.769Z,6.80
2023-04-12T21:46:00.419Z,6.90
2023-04-12T21:48:27.284Z,6.80
2023-04-12T21:50:53.848Z,6.80
2023-04-12T21:53:20.502Z,6.80
2023-04-12T21:55:49.538Z,6.70
2023-04-12T21:58:16.978Z,6.80
2023-04-12T22:00:43.869Z,6.70
2023-04-12T22:03:11.289Z,6.60
2023-04-12T22:05:39.812Z,6.70
2023-04-12T22:08:10.357Z,6.80
2023-04-12T22:10:36.902Z,6.80
2023-04-12T22:13:03.462Z,6.70
2023-04-12T22:15:31.047Z,6.70
2023-04-12T22:17:57.684Z,6.90
2023-04-12T22:20:24.293Z,6.90
2023-04-12T22:22:50.824Z,6.80
2023-04-12T22:25:18.467Z,6.80
2023-04-12T22:27:46.491Z,6.70
2023-04-12T22:30:13.538Z,6.80
2023-04-12T22:32:40.319Z,6.80
2023-04-12T22:35:08.784Z,6.90
2023-04-12T22:37:36.420Z,6.90
2023-04-12T22:40:04.978Z,6.80
2023-04-12T22:42:31.559Z,6.80
2023-04-12T22:44:59.129Z,6.90
2023-04-12T22:47:26.397Z,7.00
2023-04-12T22:49:58.166Z,6.90
2023-04-12T22:52:24.719Z,7.00
2023-04-12T22:54:51.320Z,6.90
2023-04-12T22:57:17.955Z,6.90
2023-04-12T22:59:44.607Z,6.90
2023-04-12T23:02:11.278Z,7.00
2023-04-12T23:04:37.927Z,7.00
2023-04-12T23:07:04.762Z,7.10
2023-04-12T23:09:32.857Z,7.20
2023-04-12T23:11:59.390Z,7.20
2023-04-12T23:14:26.118Z,7.30
2023-04-12T23:16:52.685Z,7.30
2023-04-12T23:19:20.299Z,7.30
2023-04-12T23:21:46.836Z,7.30
2023-04-12T23:24:15.572Z,7.30
2023-04-12T23:26:42.468Z,7.50
2023-04-12T23:29:09.067Z,7.50
2023-04-12T23:31:35.766Z,7.50
2023-04-12T23:34:03.639Z,7.50
2023-04-12T23:36:30.270Z,7.60
2023-04-12T23:39:00.295Z,7.60
2023-04-12T23:41:27.683Z,7.80
2023-04-12T23:43:54.238Z,7.80
2023-04-12T23:46:21.509Z,7.80
2023-04-12T23:48:49.158Z,8.00
2023-04-12T23:51:16.204Z,8.10
2023-04-12T23:53:42.907Z,8.20
2023-04-12T23:56:09.990Z,8.30
2023-04-12T23:58:36.593Z,8.50
